Nutley, New Jersey
Current Conditions -  °F | °C
As of 11:51 AM on Friday 21 Nov 2014 (Local Time) from KTEB Reporting Station
Clear Clear  
Wind Chill: 26°   Ceiling: Unl
Heat Index: 35°   Visibility: 10mi
Dew Point: 10°   Wind: 13mph
Humidity: 35%   Direction: 290°WNW
Pressure: 30.29"   Gusts: 24mph
Location:  40.82°N, 74.16°W
Report Text: KTEB 211651Z 29011G21KT 10SM CLR 02/M12 A3029 RMK AO2 PK WND 32026/1622 SLP255 T00171122
Loading
Personal Weather Stations






























Interactive Weather Map New forecast layout! Learn more

10-Day Weather Forecast

Advertisements
Track Severe Weather on mobile